Airfield :







YOU CAN JOIN US ON...

 
LOGIN :

Register | Disclaimer

   EN    FR    IT 

 









Legend :    VFR   Marginal VFR   IFR   Intensive IFR   Very Intensive IFR
Visi :
Ceiling :
>= 8 km
>= 3000ft
5 to 8 km
1000 to 3000 ft
1500m to 5 km
500 to 1000 ft
800 to 1500m
200 to 500 ft
< 800m
< 200 ft
Symbols :   Thunderstorms  Fog  Heavy snow  Heavy precipitations  Wind > 20 kt






- Airport Elevation : 90 ft
- IATA code : YHU


CYHU - Montréal Saint-Hubert

CURRENT METAR :
  • 080800Z AUTO 18007KT 9SM FEW010 M11/M13 A3044 RMK SLP310

EXPIRED METARs :
  • 080743Z AUTO 19007KT 9SM SCT010 M11/M13 A3044 RMK SLP310
  • 080716Z AUTO 18003KT 9SM BKN010 M12/M13 A3045 RMK SLP314
  • 080700Z AUTO 16004KT 9SM FEW012 M12/M14 A3044 RMK SLP313
  • 080600Z AUTO 18006KT 9SM CLR M11/M13 A3043 RMK SLP309

TAF AMD TAF CYHU
Valid from the 08 at 07:00 until the 09 at 06:00 UTC


080734Z 0807/0906 18008KT P6SM FEW012
TEMPO 0807/0809 BKN010
FM081100 18012KT P6SM FEW020 BKN180
BECMG 0811/0813 18012G22KT
FM081800 18012G22KT P6SM OVC080
TEMPO 0818/0821 P6SM -SN OVC060
FM082100 18017G27KT P6SM BKN100
FM090200 18015G25KT P6SM OVC040
FM090400 18013G23KT 5SM -SN OVC030 RMK FCST BASED ON AUTO OBS. NXT FCST BY 081200Z



MET'MAP, your aeronautical weather chart ! - Copyright ORBIFLY December 2007 - Disclaimer

ORBIFLY MET'MAP TEAM :

Programming & Development : Alexandra Zaïnal
Concept & original design : Baudouin d'Aumeries
Assistance for programming : Marc-Olivier Méhu
Technical & hardware support : Manuel Goepfert

Contact : metmap@orbifly.com




SOURCES & CREDITS :

   NOAA